createdAt,value
2019-05-30T00:04:23.083Z,23.26
2019-05-30T00:09:26.337Z,23.24
2019-05-30T00:14:29.550Z,23.18
2019-05-30T00:19:33.941Z,23.08
2019-05-30T00:24:37.556Z,23.13
2019-05-30T00:29:40.782Z,23.19
2019-05-30T00:34:43.995Z,23.15
2019-05-30T00:39:47.213Z,23.09
2019-05-30T00:44:50.426Z,23.06
2019-05-30T00:49:53.643Z,23.14
2019-05-30T00:54:56.859Z,23.15
2019-05-30T01:00:00.929Z,23.14
2019-05-30T01:05:07.866Z,23.07
2019-05-30T01:10:11.173Z,23.05
2019-05-30T01:15:14.391Z,23.12
2019-05-30T01:20:17.606Z,23.03
2019-05-30T01:25:20.810Z,23.05
2019-05-30T01:30:24.069Z,23.05
2019-05-30T01:35:27.285Z,23.09
2019-05-30T01:40:30.501Z,23.12
2019-05-30T01:45:33.742Z,23.03
2019-05-30T01:50:36.935Z,23.04
2019-05-30T01:55:40.171Z,23.03
2019-05-30T02:00:43.403Z,23.02
2019-05-30T02:05:46.624Z,23.09
2019-05-30T02:10:49.853Z,23.08
2019-05-30T02:15:53.082Z,22.95
2019-05-30T02:20:56.302Z,23.04
2019-05-30T02:26:00.089Z,23.01
2019-05-30T02:31:05.326Z,23.01
2019-05-30T02:36:10.646Z,22.99
2019-05-30T02:41:13.429Z,22.94
2019-05-30T02:46:16.665Z,22.98
2019-05-30T02:51:19.874Z,22.98
2019-05-30T02:56:23.089Z,22.92
2019-05-30T03:01:26.325Z,22.88
2019-05-30T03:06:29.538Z,22.96
2019-05-30T03:11:32.774Z,23.02
2019-05-30T03:16:36.023Z,23.03
2019-05-30T03:21:39.247Z,22.99
2019-05-30T03:26:42.468Z,22.92
2019-05-30T03:31:45.714Z,22.99
2019-05-30T03:36:48.929Z,23.05
2019-05-30T03:41:52.138Z,23.02
2019-05-30T03:46:56.816Z,22.95
2019-05-30T03:52:00.034Z,22.96
2019-05-30T03:57:06.953Z,22.93
2019-05-30T04:02:33.328Z,23.03
2019-05-30T04:07:42.669Z,22.96
2019-05-30T04:13:11.831Z,22.89
2019-05-30T04:18:16.455Z,22.99
2019-05-30T04:23:19.994Z,22.89
2019-05-30T04:28:23.209Z,22.92
2019-05-30T04:33:32.932Z,22.94
2019-05-30T04:38:31.650Z,23.02
2019-05-30T04:43:34.863Z,22.91
2019-05-30T04:48:38.077Z,23.01
2019-05-30T04:53:41.306Z,22.98
2019-05-30T04:58:44.517Z,22.87
2019-05-30T05:03:47.718Z,22.98
2019-05-30T05:08:50.958Z,22.97
2019-05-30T05:13:54.177Z,22.99
2019-05-30T05:18:57.402Z,22.94
2019-05-30T05:24:00.607Z,22.89
2019-05-30T05:29:03.837Z,22.99
2019-05-30T05:34:07.049Z,22.92
2019-05-30T05:39:10.252Z,22.91
2019-05-30T05:44:13.478Z,22.98
2019-05-30T05:49:16.690Z,22.95
2019-05-30T05:54:20.908Z,22.95
2019-05-30T05:59:25.230Z,23.01
2019-05-30T06:04:28.589Z,22.93
2019-05-30T06:09:31.803Z,22.97
2019-05-30T06:14:35.042Z,23.02
2019-05-30T06:19:46.438Z,22.87
2019-05-30T06:24:43.200Z,22.93
2019-05-30T06:29:46.418Z,23.01
2019-05-30T06:34:49.644Z,22.92
2019-05-30T06:39:52.854Z,23.02
2019-05-30T06:44:56.067Z,22.97
2019-05-30T06:49:59.283Z,22.90
2019-05-30T06:55:02.507Z,23.06
2019-05-30T07:00:09.391Z,23.00
2019-05-30T07:05:13.364Z,23.09
2019-05-30T07:10:17.004Z,23.00
2019-05-30T07:15:20.991Z,23.06
2019-05-30T07:20:25.403Z,22.93
2019-05-30T07:25:29.807Z,22.97
2019-05-30T07:30:34.218Z,23.14
2019-05-30T07:35:37.984Z,23.16
2019-05-30T07:40:41.192Z,23.25
2019-05-30T07:45:56.334Z,23.22
2019-05-30T07:50:50.099Z,23.23
2019-05-30T07:55:53.316Z,23.23
2019-05-30T08:00:56.531Z,23.27
2019-05-30T08:05:59.748Z,23.25
2019-05-30T08:11:09.413Z,23.30
2019-05-30T08:16:07.896Z,23.30
2019-05-30T08:21:11.132Z,23.27
2019-05-30T08:26:14.348Z,23.40
2019-05-30T08:31:17.563Z,23.33
2019-05-30T08:36:20.758Z,23.18
2019-05-30T08:41:23.973Z,23.26
2019-05-30T08:46:27.205Z,23.19
2019-05-30T08:51:30.423Z,23.15
2019-05-30T08:56:34.515Z,23.15
2019-05-30T09:01:37.948Z,23.17
2019-05-30T09:06:42.022Z,23.17
2019-05-30T09:11:46.354Z,23.13
2019-05-30T09:16:51.051Z,23.12
2019-05-30T09:21:54.479Z,23.09
2019-05-30T09:26:57.670Z,23.11
2019-05-30T09:32:00.899Z,23.11
2019-05-30T09:37:04.116Z,23.07
2019-05-30T09:42:07.331Z,23.11
2019-05-30T09:47:10.559Z,23.07
2019-05-30T09:52:13.775Z,23.08
2019-05-30T09:57:16.989Z,23.07
2019-05-30T10:02:20.275Z,23.08
2019-05-30T10:07:23.495Z,23.09
2019-05-30T10:12:26.712Z,23.05
2019-05-30T10:17:29.942Z,23.06
2019-05-30T10:22:33.158Z,23.15
2019-05-30T10:27:36.378Z,23.15
2019-05-30T10:32:39.763Z,23.06
2019-05-30T10:37:42.979Z,23.13
2019-05-30T10:42:47.827Z,23.06
2019-05-30T10:47:51.432Z,23.10
2019-05-30T10:52:55.638Z,23.11
2019-05-30T10:57:59.657Z,23.06
2019-05-30T11:03:03.026Z,23.09
2019-05-30T11:08:08.638Z,23.05
2019-05-30T11:13:14.690Z,23.05
2019-05-30T11:18:18.142Z,23.10
2019-05-30T11:23:21.359Z,23.04
2019-05-30T11:28:24.567Z,23.11
2019-05-30T11:33:27.795Z,23.07
2019-05-30T11:38:31.076Z,23.16
2019-05-30T11:43:34.296Z,23.13
2019-05-30T11:48:37.515Z,23.12
2019-05-30T11:53:40.726Z,23.05
2019-05-30T11:58:43.972Z,23.05
2019-05-30T12:03:47.191Z,23.14
2019-05-30T12:08:50.671Z,23.21
2019-05-30T12:13:55.198Z,23.12
2019-05-30T12:18:59.632Z,23.13
2019-05-30T12:24:03.027Z,23.13
2019-05-30T12:29:06.251Z,23.15
2019-05-30T12:34:09.466Z,23.06
2019-05-30T12:39:12.700Z,23.13
2019-05-30T12:44:16.084Z,23.11
2019-05-30T12:49:19.300Z,23.07
2019-05-30T12:54:22.531Z,23.13
2019-05-30T12:59:25.748Z,23.13
2019-05-30T13:04:28.957Z,23.13
2019-05-30T13:09:32.213Z,23.10
2019-05-30T13:14:35.432Z,23.09
2019-05-30T13:19:39.110Z,23.11
2019-05-30T13:24:42.344Z,23.09
2019-05-30T13:29:45.567Z,23.08
2019-05-30T13:34:48.774Z,23.11
2019-05-30T13:39:52.016Z,22.99
2019-05-30T13:44:55.226Z,23.09
2019-05-30T13:49:58.588Z,23.09
2019-05-30T13:55:03.539Z,23.21
2019-05-30T14:00:09.003Z,23.22
2019-05-30T14:05:13.383Z,23.09
2019-05-30T14:10:16.590Z,23.12
2019-05-30T14:15:19.823Z,23.12
2019-05-30T14:20:23.091Z,23.12
2019-05-30T14:25:26.259Z,23.15
2019-05-30T14:30:29.497Z,23.18
2019-05-30T14:35:32.728Z,23.13
2019-05-30T14:40:35.938Z,23.12
2019-05-30T14:45:39.150Z,23.14
2019-05-30T14:50:42.385Z,23.14
2019-05-30T14:55:45.598Z,23.17
2019-05-30T15:00:48.810Z,23.16
2019-05-30T15:05:52.039Z,23.21
2019-05-30T15:10:55.255Z,23.19
2019-05-30T15:15:58.471Z,23.13
2019-05-30T15:21:01.702Z,23.21
2019-05-30T15:26:05.938Z,23.13
2019-05-30T15:31:10.284Z,23.20
2019-05-30T15:36:14.865Z,23.21
2019-05-30T15:41:18.281Z,23.20
2019-05-30T15:46:21.508Z,23.20
2019-05-30T15:51:24.732Z,23.23
2019-05-30T15:56:27.944Z,23.25
2019-05-30T16:01:31.158Z,23.21
2019-05-30T16:06:34.395Z,23.26
2019-05-30T16:11:37.594Z,23.24
2019-05-30T16:16:40.810Z,23.22
2019-05-30T16:21:44.038Z,23.30
2019-05-30T16:26:47.261Z,23.27
2019-05-30T16:31:50.477Z,23.31
2019-05-30T16:36:53.703Z,23.35
2019-05-30T16:41:56.913Z,23.27
2019-05-30T16:47:00.129Z,23.32
2019-05-30T16:52:03.345Z,23.31
2019-05-30T16:57:06.557Z,23.26
2019-05-30T17:02:09.803Z,23.26
2019-05-30T17:07:13.018Z,23.24
2019-05-30T17:12:17.339Z,23.21
2019-05-30T17:17:20.736Z,23.19
2019-05-30T17:22:24.926Z,23.23
2019-05-30T17:27:28.876Z,23.17
2019-05-30T17:32:32.095Z,23.17
2019-05-30T17:37:35.308Z,23.20
2019-05-30T17:42:38.529Z,23.23
2019-05-30T17:47:41.747Z,23.27
2019-05-30T17:52:44.965Z,23.15
2019-05-30T17:57:48.187Z,23.17
2019-05-30T18:02:51.418Z,23.20
2019-05-30T18:07:54.635Z,23.14
2019-05-30T18:12:57.850Z,23.11
2019-05-30T18:18:01.069Z,23.17
2019-05-30T18:23:04.282Z,23.13
2019-05-30T18:28:07.503Z,23.17
2019-05-30T18:33:10.893Z,23.14
2019-05-30T18:38:14.101Z,23.17
2019-05-30T18:43:17.342Z,23.13
2019-05-30T18:48:20.543Z,23.13
2019-05-30T18:53:24.243Z,23.10
2019-05-30T18:58:28.805Z,23.08
2019-05-30T19:03:33.355Z,23.08
2019-05-30T19:08:36.650Z,23.07
2019-05-30T19:13:39.879Z,23.12
2019-05-30T19:18:43.085Z,23.10
2019-05-30T19:23:46.288Z,23.09
2019-05-30T19:28:49.506Z,23.13
2019-05-30T19:33:52.706Z,23.17
2019-05-30T19:38:55.933Z,23.09
2019-05-30T19:43:59.191Z,23.03
2019-05-30T19:49:02.370Z,23.14
2019-05-30T19:54:05.586Z,23.12
2019-05-30T19:59:08.801Z,23.11
2019-05-30T20:04:12.012Z,23.05
2019-05-30T20:09:15.225Z,23.06
2019-05-30T20:14:18.443Z,23.20
2019-05-30T20:19:21.712Z,23.11
2019-05-30T20:24:24.921Z,23.08
2019-05-30T20:29:28.139Z,23.05
2019-05-30T20:34:31.357Z,23.12
2019-05-30T20:39:34.743Z,23.12
2019-05-30T20:44:38.874Z,23.14
2019-05-30T20:49:43.424Z,23.13
2019-05-30T20:54:46.761Z,23.06
2019-05-30T20:59:49.974Z,23.12
2019-05-30T21:04:53.187Z,23.11
2019-05-30T21:09:56.424Z,23.12
2019-05-30T21:14:59.637Z,23.08
2019-05-30T21:20:02.863Z,23.18
2019-05-30T21:25:07.502Z,23.07
2019-05-30T21:30:10.755Z,23.13
2019-05-30T21:35:14.305Z,23.07
2019-05-30T21:40:17.771Z,23.13
2019-05-30T21:45:21.000Z,23.05
2019-05-30T21:50:24.220Z,23.06
2019-05-30T21:55:27.426Z,23.15
2019-05-30T22:00:50.902Z,23.11
2019-05-30T22:05:54.435Z,23.14
2019-05-30T22:10:57.646Z,23.02
2019-05-30T22:16:00.888Z,23.04
2019-05-30T22:21:04.553Z,23.14
2019-05-30T22:26:08.133Z,23.14
2019-05-30T22:31:11.381Z,23.06
2019-05-30T22:36:14.590Z,23.14
2019-05-30T22:41:17.807Z,23.07
2019-05-30T22:46:21.015Z,23.08
2019-05-30T22:51:27.420Z,23.07
2019-05-30T22:56:29.190Z,23.08
2019-05-30T23:01:32.386Z,23.05
2019-05-30T23:06:35.612Z,23.03
2019-05-30T23:11:38.824Z,23.13
2019-05-30T23:16:42.044Z,23.09
2019-05-30T23:21:45.290Z,23.02
2019-05-30T23:26:49.449Z,23.17
2019-05-30T23:31:54.024Z,23.15
2019-05-30T23:36:58.653Z,23.06
2019-05-30T23:42:02.017Z,23.07
2019-05-30T23:47:05.291Z,23.09
2019-05-30T23:52:08.539Z,23.09
2019-05-30T23:57:11.752Z,23.00
